Time;durP1;ratioP1;P1;durP2;ratioP2;P2;SDS_P1;SDS_P2;PMS_P1;PMS_P2;Temp;Humidity;BMP_temperature;BMP_pressure;BME280_temperature;BME280_humidity;BME280_pressure;Samples;Min_cycle;Max_cycle;Signal;HPM_P1;HPM_P2
2023/03/21 00:02:53;;;;;;;45.45;29.73;;;;;;;11.04;55.19;97513.84;10407167;28;20373;-54
2023/03/21 00:07:53;;;;;;;46.63;29.42;;;;;;;10.88;55.74;97510.47;10405931;28;20025;-53
2023/03/21 00:12:57;;;;;;;;;;;;;;;10.91;55.83;97509.59;10407613;28;20484;-54
2023/03/21 00:18:02;;;;;;;44.28;28.10;;;;;;;10.91;56.56;97502.66;10406391;28;20011;-53
2023/03/21 00:23:02;;;;;;;41.17;26.73;;;;;;;10.62;57.72;97500.22;10406191;28;20056;-53
2023/03/21 00:28:01;;;;;;;40.58;25.67;;;;;;;10.46;58.00;97494.25;10405539;28;20119;-53
2023/03/21 00:33:00;;;;;;;34.25;23.60;;;;;;;10.39;58.11;97495.13;10406384;28;20082;-53
2023/03/21 00:37:59;;;;;;;37.80;24.67;;;;;;;10.28;58.51;97478.75;10405476;28;20383;-53
2023/03/21 00:42:58;;;;;;;;;;;;;;;10.38;57.78;97490.84;10409527;28;20068;-53
2023/03/21 00:47:57;;;;;;;46.55;29.00;;;;;;;10.38;57.57;97490.84;10409013;28;19916;-52
2023/03/21 00:52:56;;;;;;;44.22;29.20;;;;;;;10.43;57.53;97491.66;10409082;28;20059;-53
2023/03/21 00:57:55;;;;;;;;;;;;;;;10.46;56.90;97491.66;10408534;28;20071;-52
2023/03/21 01:02:57;;;;;;;40.47;27.45;;;;;;;10.50;57.15;97488.16;10406546;28;19912;-52
2023/03/21 01:07:56;;;;;;;46.03;28.65;;;;;;;10.51;57.71;97484.69;10407856;28;20080;-53
2023/03/21 01:12:55;;;;;;;;;;;;;;;10.53;57.72;97488.16;10409010;28;20076;-52
2023/03/21 01:17:54;;;;;;;46.22;29.13;;;;;;;10.48;58.18;97484.72;10407844;28;20700;-53
2023/03/21 01:22:53;;;;;;;44.58;28.90;;;;;;;10.51;58.28;97484.69;10407603;28;20872;-52
2023/03/21 01:27:53;;;;;;;44.58;27.77;;;;;;;10.50;58.01;97495.97;10406571;28;20161;-52
2023/03/21 01:32:52;;;;;;;50.25;32.83;;;;;;;10.12;59.16;97450.31;10406018;28;20446;-52
2023/03/21 01:37:51;;;;;;;50.30;33.47;;;;;;;10.25;60.58;97512.50;10404743;28;20056;-53
2023/03/21 01:42:50;;;;;;;;;;;;;;;9.95;61.56;97503.94;10406843;28;20058;-53
2023/03/21 01:47:49;;;;;;;48.25;31.38;;;;;;;9.77;61.94;97504.84;10406294;28;19935;-54
2023/03/21 01:52:49;;;;;;;43.50;30.00;;;;;;;9.76;62.14;97503.97;10406465;28;20516;-52
2023/03/21 01:57:52;;;;;;;44.80;29.77;;;;;;;9.81;61.71;97496.19;10405926;28;20454;-53
2023/03/21 02:02:54;;;;;;;42.45;26.58;;;;;;;9.68;61.74;97485.00;10406995;28;20063;-53
2023/03/21 02:07:53;;;;;;;39.03;24.98;;;;;;;9.28;62.25;97441.03;10406551;28;20120;-53
2023/03/21 02:12:54;;;;;;;39.35;24.88;;;;;;;9.57;62.51;97507.47;10405889;28;20059;-51
2023/03/21 02:18:01;;;;;;;33.42;23.50;;;;;;;9.53;62.56;97510.91;10406044;28;20056;-51
2023/03/21 02:23:20;;;;;;;32.88;23.35;;;;;;;9.60;62.83;97502.25;10405923;28;20063;-52
2023/03/21 02:28:28;;;;;;;32.60;20.52;;;;;;;9.64;61.80;97505.72;10404594;28;20128;-52
2023/03/21 02:33:42;;;;;;;37.90;24.70;;;;;;;9.57;61.82;97512.63;10406683;28;20087;-52
2023/03/21 02:38:55;;;;;;;32.67;23.42;;;;;;;9.71;61.29;97510.88;10405056;28;20056;-53
2023/03/21 02:44:02;;;;;;;29.02;20.15;;;;;;;9.80;60.71;97507.44;10404933;28;20761;-52
2023/03/21 02:49:20;;;;;;;30.80;19.55;;;;;;;9.85;60.34;97505.69;10402611;28;20063;-53
2023/03/21 02:54:22;;;;;;;33.47;22.10;;;;;;;9.83;60.22;97504.81;10404489;28;20467;-53
2023/03/21 02:59:24;;;;;;;41.03;26.48;;;;;;;9.74;60.96;97499.66;10402952;28;20055;-53
2023/03/21 03:04:26;;;;;;;37.13;28.45;;;;;;;9.61;62.12;97495.38;10404862;28;20063;-53
2023/03/21 03:09:26;;;;;;;34.60;24.10;;;;;;;9.35;64.04;97504.03;10404752;28;20072;-54
2023/03/21 03:14:30;;;;;;;32.85;22.42;;;;;;;9.20;64.69;97501.41;10403457;28;20067;-53
2023/03/21 03:19:35;;;;;;;34.65;23.38;;;;;;;9.20;64.42;97503.97;10402640;28;20048;-54
2023/03/21 03:24:56;;;;;;;33.72;23.45;;;;;;;9.14;65.50;97499.69;10405374;28;20064;-53
2023/03/21 03:29:59;;;;;;;33.58;23.13;;;;;;;9.04;65.21;97487.56;10409706;28;20158;-53
2023/03/21 03:34:58;;;;;;;35.55;25.15;;;;;;;8.97;66.49;97506.53;10412138;28;20548;-53
2023/03/21 03:39:57;;;;;;;;;;;;;;;8.92;65.91;97491.88;10411956;28;20051;-54
2023/03/21 03:44:56;;;;;;;36.22;25.10;;;;;;;8.86;66.44;97491.88;10411712;28;19916;-54
2023/03/21 03:50:05;;;;;;;40.47;25.70;;;;;;;8.68;67.13;97503.03;10410911;28;20102;-54
2023/03/21 03:55:04;;;;;;;37.88;26.15;;;;;;;8.65;67.34;97505.63;10411441;28;20079;-54
2023/03/21 04:00:10;;;;;;;37.53;25.50;;;;;;;8.61;67.19;97497.84;10409050;28;20501;-54
2023/03/21 04:05:09;;;;;;;45.30;24.45;;;;;;;8.57;67.18;97490.94;10409428;28;20079;-53
2023/03/21 04:10:09;;;;;;;38.10;22.85;;;;;;;8.56;67.35;97507.34;10406679;28;20140;-54
2023/03/21 04:15:09;;;;;;;33.75;22.45;;;;;;;8.50;67.84;97508.16;10408010;28;20090;-54
2023/03/21 04:20:08;;;;;;;34.28;22.83;;;;;;;8.42;67.87;97504.69;10406869;28;20170;-53
2023/03/21 04:25:08;;;;;;;32.50;22.17;;;;;;;8.33;68.16;97518.44;10408040;28;20067;-53
2023/03/21 04:30:08;;;;;;;44.63;24.38;;;;;;;8.22;68.51;97512.38;10408266;28;20609;-53
2023/03/21 04:35:10;;;;;;;33.53;21.90;;;;;;;8.24;68.21;97531.34;10407345;28;20496;-53
2023/03/21 04:40:10;;;;;;;31.17;21.25;;;;;;;8.13;68.46;97520.97;10406902;28;20673;-56
2023/03/21 04:45:09;;;;;;;33.92;23.15;;;;;;;8.02;68.78;97507.97;10407416;28;20811;-54
2023/03/21 04:50:10;;;;;;;38.22;25.40;;;;;;;8.19;68.74;97538.22;10408369;28;20120;-53
2023/03/21 04:55:10;;;;;;;45.28;28.48;;;;;;;8.19;68.82;97531.31;10406541;28;20060;-53
2023/03/21 05:00:09;;;;;;;48.33;29.63;;;;;;;8.18;69.35;97523.56;10407491;28;20064;-54
2023/03/21 05:05:10;;;;;;;50.90;32.10;;;;;;;8.29;69.22;97535.69;10408166;28;20442;-55
2023/03/21 05:10:11;;;;;;;47.38;31.60;;;;;;;8.41;69.06;97534.88;10448946;28;20082;-55
2023/03/21 05:15:10;;;;;;;46.38;31.38;;;;;;;8.51;69.15;97546.97;10426602;28;20063;-54
2023/03/21 05:20:10;;;;;;;56.28;34.67;;;;;;;8.65;69.05;97553.91;10406926;28;20052;-54
2023/03/21 05:25:10;;;;;;;52.92;33.33;;;;;;;8.79;68.61;97541.88;10406089;28;20796;-54
2023/03/21 05:30:09;;;;;;;66.68;42.33;;;;;;;8.90;68.39;97549.66;10406039;28;20593;-54
2023/03/21 05:35:09;;;;;;;;;;;;;;;9.03;68.12;97550.56;10405965;28;20062;-54
2023/03/21 05:40:09;;;;;;;79.07;45.00;;;;;;;9.00;67.61;97524.69;10406455;28;20739;-53
2023/03/21 05:45:08;;;;;;;56.05;34.65;;;;;;;9.04;67.42;97541.94;10405038;28;20060;-54
2023/03/21 05:50:10;;;;;;;51.17;30.65;;;;;;;8.99;66.93;97518.63;10404980;28;20048;-54
2023/03/21 05:55:09;;;;;;;73.93;34.10;;;;;;;9.24;67.07;97537.66;10404669;28;20120;-54
2023/03/21 06:00:08;;;;;;;64.90;36.75;;;;;;;9.43;66.58;97533.38;10403446;28;20037;-53
2023/03/21 06:05:08;;;;;;;55.25;37.58;;;;;;;9.60;66.25;97523.00;10405721;28;20473;-53
2023/03/21 06:10:07;;;;;;;;;;;;;;;9.80;64.73;97514.34;10404946;28;20806;-53
2023/03/21 06:15:07;;;;;;;52.38;35.47;;;;;;;9.92;63.99;97510.00;10405356;28;19951;-53
2023/03/21 06:20:08;;;;;;;53.00;34.38;;;;;;;10.21;63.22;97519.41;10405438;28;20124;-53
2023/03/21 06:25:07;;;;;;;52.42;33.08;;;;;;;10.53;62.41;97516.69;10405480;28;20052;-54
2023/03/21 06:30:07;;;;;;;49.55;33.50;;;;;;;10.90;61.26;97513.06;10402694;28;20123;-54
2023/03/21 06:35:06;;;;;;;47.40;33.00;;;;;;;11.23;59.28;97502.44;10404181;28;20469;-54
2023/03/21 06:40:06;;;;;;;;;;;;;;;11.62;57.68;97509.94;10403855;28;20047;-54
2023/03/21 06:45:06;;;;;;;49.17;30.45;;;;;;;11.87;55.94;97510.53;10405451;28;20401;-53
2023/03/21 06:50:05;;;;;;;41.97;28.13;;;;;;;12.15;53.76;97499.84;10413898;28;20964;-54
2023/03/21 06:55:05;;;;;;;49.88;33.15;;;;;;;12.33;54.67;97502.25;10404861;28;20052;-54
2023/03/21 07:00:04;;;;;;;61.13;34.03;;;;;;;12.55;54.63;97509.81;10403823;28;20119;-54
2023/03/21 07:05:04;;;;;;;48.08;31.40;;;;;;;12.87;54.39;97512.84;10412213;28;20504;-55
2023/03/21 07:10:04;;;;;;;49.78;32.00;;;;;;;13.08;53.72;97489.97;10412647;28;20822;-54
2023/03/21 07:15:03;;;;;;;48.50;30.58;;;;;;;13.25;51.86;97510.53;10412042;28;20502;-54
2023/03/21 07:20:06;;;;;;;46.40;31.15;;;;;;;13.43;51.16;97505.03;10412293;28;20103;-54
2023/03/21 07:25:06;;;;;;;49.25;32.40;;;;;;;13.69;50.40;97514.22;10411751;28;20068;-54
2023/03/21 07:30:06;;;;;;;59.10;32.35;;;;;;;13.90;50.35;97519.03;10411204;28;20064;-54
2023/03/21 07:35:11;;;;;;;44.13;31.92;;;;;;;13.94;50.63;97512.88;10410508;28;20135;-55
2023/03/21 07:40:12;;;;;;;46.17;30.00;;;;;;;13.88;51.95;97515.59;10409034;28;20043;-54
2023/03/21 07:45:16;;;;;;;41.00;28.70;;;;;;;14.01;52.41;97512.75;10409861;28;20063;-55
2023/03/21 07:50:16;;;;;;;44.35;29.13;;;;;;;14.36;51.02;97499.91;10409268;28;20076;-54
2023/03/21 07:55:16;;;;;;;45.80;29.75;;;;;;;14.60;50.50;97510.72;10410121;28;20123;-54
2023/03/21 08:00:21;;;;;;;43.33;30.33;;;;;;;15.03;50.98;97513.28;10407762;28;20115;-54
2023/03/21 08:05:29;;;;;;;46.42;31.73;;;;;;;15.28;48.28;97488.34;10400526;28;20147;-54
2023/03/21 08:10:28;;;;;;;49.83;33.50;;;;;;;15.54;48.77;97514.69;10408620;28;20498;-54
2023/03/21 08:15:27;;;;;;;46.55;32.65;;;;;;;15.82;46.70;97509.66;10443121;28;20110;-55
2023/03/21 08:20:29;;;;;;;48.92;31.70;;;;;;;16.09;46.84;97508.09;10405530;28;20108;-55
2023/03/21 08:25:28;;;;;;;37.65;25.33;;;;;;;16.38;43.99;97508.19;10405566;28;20494;-55
2023/03/21 08:30:30;;;;;;;33.08;22.02;;;;;;;16.66;44.43;97495.13;10401387;28;20552;-55
2023/03/21 08:35:32;;;;;;;34.50;19.77;;;;;;;16.75;44.00;97505.34;10408408;28;20466;-55
2023/03/21 08:40:32;;;;;;;32.53;21.83;;;;;;;17.11;43.87;97492.91;10405309;28;20075;-54
2023/03/21 08:45:31;;;;;;;33.50;21.20;;;;;;;17.48;42.46;97501.38;10406006;28;20056;-55
2023/03/21 08:50:30;;;;;;;22.55;16.05;;;;;;;17.91;41.77;97487.66;10406390;28;20047;-58
2023/03/21 08:55:31;;;;;;;18.10;11.65;;;;;;;18.26;37.94;97485.56;10406816;28;20083;-54
2023/03/21 09:00:31;;;;;;;16.17;11.48;;;;;;;18.45;36.93;97480.50;10406484;28;20064;-54
2023/03/21 09:05:30;;;;;;;23.58;13.98;;;;;;;18.67;36.67;97484.97;10407713;28;20494;-55
2023/03/21 09:10:29;;;;;;;32.10;13.60;;;;;;;19.11;37.38;97492.91;10407608;28;20551;-55
2023/03/21 09:15:28;;;;;;;22.13;12.10;;;;;;;19.42;36.10;97453.94;10431703;28;20070;-55
2023/03/21 09:20:31;;;;;;;25.45;9.82;;;;;;;19.81;35.39;97479.56;10405881;28;20119;-56
2023/03/21 09:25:31;;;;;;;25.27;10.88;;;;;;;20.08;35.70;97463.47;10406277;28;20070;-56
2023/03/21 09:30:32;;;;;;;20.02;9.98;;;;;;;20.13;34.46;97456.22;10405467;28;20123;-55
2023/03/21 09:35:31;;;;;;;14.75;8.23;;;;;;;20.30;33.82;97460.72;10403888;28;20075;-56
2023/03/21 09:40:49;;;;;;;16.23;8.77;;;;;;;20.29;33.42;97457.25;10404300;28;20466;-55
2023/03/21 09:45:57;;;;;;;13.60;8.52;;;;;;;19.97;33.17;97444.63;10405844;28;20087;-53
2023/03/21 09:50:57;;;;;;;21.20;7.60;;;;;;;20.09;35.36;97444.09;10400077;28;20155;-53
2023/03/21 09:55:56;;;;;;;17.60;9.00;;;;;;;19.65;33.78;97428.47;10406334;28;20048;-55
2023/03/21 10:01:07;;;;;;;12.48;7.38;;;;;;;19.19;34.81;97393.53;10405893;28;20135;-55
2023/03/21 10:06:14;;;;;;;15.15;8.57;;;;;;;19.23;34.11;97419.66;10404562;28;20505;-55
2023/03/21 10:11:16;;;;;;;11.63;7.13;;;;;;;19.29;34.58;97444.84;10405675;28;20466;-55
2023/03/21 10:16:22;;;;;;;12.27;7.28;;;;;;;19.31;34.55;97424.59;10405250;28;20123;-55
2023/03/21 10:21:26;;;;;;;12.15;6.60;;;;;;;19.33;35.01;97420.13;10405000;28;20056;-56
2023/03/21 10:26:29;;;;;;;9.27;5.95;;;;;;;19.42;34.13;97424.16;10403653;28;20503;-55
2023/03/21 10:31:30;;;;;;;11.50;5.78;;;;;;;19.05;34.91;97395.88;10405697;28;20072;-55
2023/03/21 10:36:32;;;;;;;12.70;7.35;;;;;;;19.15;35.09;97394.56;10410127;28;20124;-55
2023/03/21 10:41:32;;;;;;;11.65;6.78;;;;;;;19.02;35.16;97391.59;10418481;28;20115;-55
2023/03/21 10:46:32;;;;;;;10.40;5.60;;;;;;;18.72;35.39;97393.69;10417231;28;20052;-55
2023/03/21 10:51:34;;;;;;;10.68;5.80;;;;;;;18.26;35.61;97384.91;10418057;28;20123;-55
2023/03/21 10:56:39;;;;;;;15.07;8.20;;;;;;;18.12;36.50;97388.03;10417967;28;20526;-55
2023/03/21 11:01:40;;;;;;;11.15;6.10;;;;;;;18.37;36.40;97372.22;10417507;28;20075;-56
2023/03/21 11:06:43;;;;;;;13.48;7.57;;;;;;;18.55;36.29;97365.38;10417551;28;20059;-55
2023/03/21 11:12:02;;;;;;;11.75;7.85;;;;;;;18.56;35.80;97367.09;10418276;28;20070;-55
2023/03/21 11:17:06;;;;;;;;;;;;;;;18.79;36.30;97368.84;10419044;28;20063;-56
2023/03/21 11:22:07;;;;;;;11.32;6.28;;;;;;;18.99;35.24;97361.03;10418324;28;19966;-55
2023/03/21 11:27:07;;;;;;;9.23;5.90;;;;;;;18.97;35.65;97357.59;10416941;28;20075;-55
2023/03/21 11:32:23;;;;;;;8.63;6.22;;;;;;;19.52;34.38;97361.44;10416485;28;20076;-55
2023/03/21 11:37:26;;;;;;;8.43;5.93;;;;;;;19.34;33.96;97360.44;10430584;28;20556;-55
2023/03/21 11:42:29;;;;;;;9.23;5.57;;;;;;;19.11;34.45;97353.53;10417399;28;20135;-55
2023/03/21 11:47:30;;;;;;;9.40;6.15;;;;;;;19.19;34.51;97340.91;10411672;28;20115;-55
2023/03/21 11:52:47;;;;;;;11.82;7.45;;;;;;;19.44;34.31;97351.25;10409259;28;20482;-56
2023/03/21 11:58:18;;;;;;;9.18;5.85;;;;;;;19.52;34.24;97335.13;10402727;28;20470;-56
2023/03/21 12:03:45;;;;;;;10.35;6.30;;;;;;;19.28;34.17;97321.28;10409997;28;20067;-55
2023/03/21 12:09:09;;;;;;;10.98;6.07;;;;;;;19.13;35.10;97314.88;10406096;28;20115;-55
2023/03/21 12:14:53;;;;;;;9.25;5.68;;;;;;;19.23;33.96;97300.41;10407657;28;20143;-55
2023/03/21 12:20:33;;;;;;;11.85;6.22;;;;;;;19.21;34.54;97295.22;10405551;28;20128;-56
2023/03/21 12:25:38;;;;;;;8.32;5.32;;;;;;;19.00;34.62;97302.25;10409398;28;20044;-56
2023/03/21 12:31:07;;;;;;;8.90;5.72;;;;;;;18.71;35.02;97302.59;10407163;28;20624;-55
2023/03/21 12:36:46;;;;;;;8.52;5.68;;;;;;;18.77;35.46;97303.19;10408136;28;20713;-56
2023/03/21 12:42:16;;;;;;;11.02;6.55;;;;;;;18.38;35.63;97295.13;10408118;28;20066;-56
2023/03/21 12:47:21;;;;;;;10.43;6.18;;;;;;;18.77;35.63;97287.44;10404341;28;20072;-55
2023/03/21 12:52:28;;;;;;;8.80;5.63;;;;;;;19.16;34.89;97288.47;10407711;28;20063;-55
2023/03/21 12:57:35;;;;;;;10.70;5.85;;;;;;;19.07;34.72;97283.59;10405590;28;20052;-55
2023/03/21 13:02:46;;;;;;;17.13;6.50;;;;;;;18.91;34.80;97273.69;10407846;28;20067;-56
2023/03/21 13:07:52;;;;;;;13.65;8.13;;;;;;;18.60;34.87;97211.03;10405869;28;20120;-56
2023/03/21 13:12:57;;;;;;;12.65;6.30;;;;;;;18.85;35.73;97252.91;10407254;28;20071;-55
2023/03/21 13:18:11;;;;;;;13.13;6.53;;;;;;;18.83;35.45;97254.78;10406916;28;20116;-56
2023/03/21 13:23:12;;;;;;;14.07;7.05;;;;;;;18.61;36.23;97250.38;10406565;28;20056;-55
2023/03/21 13:28:26;;;;;;;9.48;5.63;;;;;;;18.58;35.74;97244.41;10405255;28;20131;-55
2023/03/21 13:33:29;;;;;;;11.30;6.88;;;;;;;18.78;35.33;97246.22;10405063;28;20120;-55
2023/03/21 13:38:29;;;;;;;10.20;6.53;;;;;;;18.54;36.44;97248.91;10419974;28;20141;-55
2023/03/21 13:44:02;;;;;;;10.32;5.70;;;;;;;18.40;37.03;97240.75;10404975;28;20067;-55
2023/03/21 13:49:13;;;;;;;13.00;7.60;;;;;;;18.28;37.55;97236.84;10403145;28;20112;-54
2023/03/21 13:54:16;;;;;;;12.20;7.65;;;;;;;18.15;37.99;97228.63;10403834;28;20048;-55
2023/03/21 13:59:33;;;;;;;10.52;7.18;;;;;;;18.07;38.04;97228.03;10405146;28;20056;-55
2023/03/21 14:04:32;;;;;;;10.07;6.40;;;;;;;17.90;38.46;97184.09;10404138;28;20048;-55
2023/03/21 14:09:34;;;;;;;12.55;7.63;;;;;;;17.73;38.40;97187.34;10403082;28;20032;-55
2023/03/21 14:14:41;;;;;;;13.15;9.05;;;;;;;17.72;37.90;97218.88;10404324;28;20144;-55
2023/03/21 14:19:40;;;;;;;10.43;6.88;;;;;;;17.74;38.37;97209.19;10403396;28;20056;-55
2023/03/21 14:24:40;;;;;;;8.32;5.65;;;;;;;17.73;38.86;97233.72;10405347;28;20059;-55
2023/03/21 14:29:39;;;;;;;11.98;5.30;;;;;;;17.64;38.21;97226.22;10404709;28;20195;-55
2023/03/21 14:34:38;;;;;;;10.95;5.80;;;;;;;17.46;38.69;97236.47;10396866;28;20151;-54
2023/03/21 14:39:37;;;;;;;10.02;5.65;;;;;;;17.23;38.99;97229.44;10404566;28;20013;-55
2023/03/21 14:44:38;;;;;;;7.72;5.68;;;;;;;17.12;39.88;97224.59;10405896;28;20846;-55
2023/03/21 14:49:37;;;;;;;14.15;6.30;;;;;;;16.86;40.13;97191.44;10404909;28;20131;-55
2023/03/21 14:54:41;;;;;;;12.43;7.32;;;;;;;17.03;39.90;97226.69;10404554;28;20056;-54
2023/03/21 14:59:41;;;;;;;11.45;6.32;;;;;;;16.72;39.86;97188.38;10403958;28;20139;-54
2023/03/21 15:04:41;;;;;;;10.00;6.60;;;;;;;16.76;40.76;97218.81;10403880;28;20075;-54
2023/03/21 15:09:52;;;;;;;14.35;7.68;;;;;;;16.81;41.13;97242.28;10416434;28;20134;-54
2023/03/21 15:14:53;;;;;;;12.38;7.68;;;;;;;16.78;41.00;97230.09;10422015;28;20072;-54
2023/03/21 15:19:52;;;;;;;14.07;8.05;;;;;;;16.75;40.67;97240.72;10401866;28;20770;-54
2023/03/21 15:24:56;;;;;;;14.32;9.13;;;;;;;16.62;40.76;97231.53;10410614;28;20766;-54
2023/03/21 15:29:55;;;;;;;10.88;7.07;;;;;;;16.51;40.74;97235.38;10449625;28;20059;-54
2023/03/21 15:35:05;;;;;;;14.35;8.20;;;;;;;16.42;41.83;97225.22;10429530;28;20194;-54
2023/03/21 15:40:21;;;;;;;10.57;7.40;;;;;;;16.38;42.40;97228.81;10430186;28;20060;-54
2023/03/21 15:45:24;;;;;;;12.35;7.70;;;;;;;16.25;42.26;97228.34;10411261;28;20095;-55
2023/03/21 15:50:23;;;;;;;13.38;7.43;;;;;;;16.23;42.52;97234.53;10404220;28;20535;-55
2023/03/21 15:55:26;;;;;;;13.93;8.07;;;;;;;16.33;42.40;97245.59;10396222;28;20449;-55
2023/03/21 16:00:50;;;;;;;12.75;8.70;;;;;;;16.30;42.53;97247.41;10405556;28;20480;-55
2023/03/21 16:06:11;;;;;;;12.25;7.93;;;;;;;16.31;42.33;97248.25;10409417;28;20096;-55
2023/03/21 16:11:39;;;;;;;30.90;16.25;;;;;;;16.22;42.49;97249.41;10400489;28;20115;-55
2023/03/21 16:16:39;;;;;;;13.52;8.07;;;;;;;15.92;43.19;97208.50;10395885;28;20063;-55
2023/03/21 16:21:38;;;;;;;33.85;16.60;;;;;;;16.04;43.78;97255.22;10407168;28;20044;-54
2023/03/21 16:26:42;;;;;;;17.95;12.60;;;;;;;15.92;44.99;97252.97;10402202;28;20135;-55
2023/03/21 16:31:42;;;;;;;18.05;11.68;;;;;;;15.68;46.95;97258.84;10400959;28;20120;-55
2023/03/21 16:36:42;;;;;;;17.88;12.18;;;;;;;15.47;46.88;97259.50;10409721;28;20637;-55
2023/03/21 16:41:41;;;;;;;15.35;10.88;;;;;;;15.39;47.70;97261.47;10405882;28;20143;-54
2023/03/21 16:46:40;;;;;;;;;;;;;;;15.05;47.16;97262.38;10408626;28;20035;-54
2023/03/21 16:51:39;;;;;;;17.20;10.67;;;;;;;14.90;47.09;97266.28;10426093;28;19954;-55
2023/03/21 16:56:40;;;;;;;;;;;;;;;14.71;48.21;97267.63;10417901;28;20111;-55
2023/03/21 17:01:40;;;;;;;20.42;12.57;;;;;;;14.37;48.92;97227.53;10408322;28;20003;-54
2023/03/21 17:06:51;;;;;;;18.90;11.60;;;;;;;14.57;49.00;97267.97;10409097;28;20064;-53
2023/03/21 17:11:50;;;;;;;22.20;14.48;;;;;;;14.19;49.23;97210.56;10407638;28;20107;-53
2023/03/21 17:16:49;;;;;;;24.02;16.60;;;;;;;14.41;51.04;97263.09;10407728;28;20127;-55
2023/03/21 17:21:48;;;;;;;;;;;;;;;14.19;52.47;97264.50;10419247;28;20034;-55
2023/03/21 17:26:47;;;;;;;21.00;14.80;;;;;;;14.15;53.16;97270.69;10406559;28;19958;-55
2023/03/21 17:31:47;;;;;;;;;;;;;;;14.10;53.61;97272.53;10403603;28;20035;-54
2023/03/21 17:36:47;;;;;;;;;;;;;;;14.07;53.62;97275.22;10403798;28;19947;-54
2023/03/21 17:41:46;;;;;;;49.03;36.00;;;;;;;14.06;53.21;97273.53;10402049;28;19956;-54
2023/03/21 17:46:45;;;;;;;;;;;;;;;14.03;53.46;97277.06;10403407;28;20064;-54
2023/03/21 17:51:45;;;;;;;36.80;26.35;;;;;;;13.96;53.68;97270.22;10402101;28;20556;-54
2023/03/21 17:56:44;;;;;;;37.58;26.48;;;;;;;14.07;53.67;97288.25;10403251;28;20127;-53
2023/03/21 18:01:43;;;;;;;;;;;;;;;14.12;54.33;97287.25;10401273;28;20035;-53
2023/03/21 18:06:42;;;;;;;22.60;14.90;;;;;;;13.71;54.12;97210.81;10404793;28;20560;-54
2023/03/21 18:11:41;;;;;;;;;;;;;;;14.17;53.96;97293.25;10401621;28;20429;-54
2023/03/21 18:16:40;;;;;;;22.65;16.90;;;;;;;14.19;53.68;97293.19;10395021;28;19963;-54
2023/03/21 18:21:42;;;;;;;;;;;;;;;14.17;53.41;97297.59;10389708;28;20035;-53
2023/03/21 18:26:42;;;;;;;44.95;27.42;;;;;;;14.21;53.67;97291.41;10398533;28;20737;-54
2023/03/21 18:31:41;;;;;;;32.28;21.42;;;;;;;14.19;53.60;97296.69;10393905;28;20124;-53
2023/03/21 18:36:40;;;;;;;27.92;19.23;;;;;;;14.23;54.73;97300.06;10400238;28;20539;-53
2023/03/21 18:41:39;;;;;;;;;;;;;;;14.19;55.82;97306.25;10395352;28;20028;-54
2023/03/21 18:46:45;;;;;;;33.45;22.35;;;;;;;14.21;55.83;97309.69;10398518;28;19963;-54
2023/03/21 18:51:45;;;;;;;38.70;27.63;;;;;;;14.10;57.02;97316.88;10400417;28;20127;-54
2023/03/21 18:56:50;;;;;;;26.13;19.73;;;;;;;13.73;58.99;97286.41;10403745;28;20072;-54
2023/03/21 19:01:49;;;;;;;20.95;16.88;;;;;;;13.71;63.17;97327.28;10409878;28;20525;-54
2023/03/21 19:06:49;;;;;;;20.80;16.70;;;;;;;13.52;66.77;97338.06;10406457;28;20466;-53
2023/03/21 19:11:48;;;;;;;20.90;15.95;;;;;;;13.38;68.88;97345.28;10408267;28;20136;-54
2023/03/21 19:16:47;;;;;;;;;;;;;;;13.32;70.95;97348.00;10408258;28;20028;-54
2023/03/21 19:21:46;;;;;;;26.65;21.17;;;;;;;13.19;71.99;97357.78;10425742;28;19920;-52
2023/03/21 19:26:45;;;;;;;;;;;;;;;13.09;73.50;97362.31;10408736;28;20084;-53
2023/03/21 19:31:44;;;;;;;38.65;27.13;;;;;;;12.90;74.60;97353.91;10408985;28;19973;-54
2023/03/21 19:36:42;;;;;;;;;;;;;;;12.80;75.62;97338.50;10410894;28;20442;-53
2023/03/21 19:41:41;;;;;;;32.35;26.58;;;;;;;12.49;77.58;97328.56;10408110;28;20337;-54
2023/03/21 19:46:40;;;;;;;40.47;29.60;;;;;;;12.33;79.35;97307.13;10406090;28;20282;-55
2023/03/21 19:51:39;;;;;;;39.78;30.90;;;;;;;12.31;79.08;97329.69;10407056;28;20068;-53
2023/03/21 19:56:38;;;;;;;41.55;31.50;;;;;;;12.30;79.51;97352.25;10407237;28;20524;-54
2023/03/21 20:01:37;;;;;;;39.90;28.27;;;;;;;12.25;80.97;97354.03;10415283;28;20067;-55
2023/03/21 20:06:37;;;;;;;39.03;30.15;;;;;;;12.20;80.69;97358.44;10405903;28;20578;-52
2023/03/21 20:11:36;;;;;;;36.22;29.02;;;;;;;11.89;81.79;97312.03;10408020;28;20123;-53
2023/03/21 20:16:35;;;;;;;;;;;;;;;12.27;82.07;97356.59;10406688;28;20071;-53
2023/03/21 20:21:35;;;;;;;35.37;27.90;;;;;;;12.27;82.00;97365.31;10406490;28;19955;-53
2023/03/21 20:26:36;;;;;;;31.33;24.20;;;;;;;12.26;82.46;97365.31;10405967;28;20091;-53
2023/03/21 20:31:35;;;;;;;47.15;36.00;;;;;;;12.17;82.92;97363.69;10405902;28;20076;-54
2023/03/21 20:36:34;;;;;;;;;;;;;;;12.14;83.35;97368.94;10406777;28;20091;-53
2023/03/21 20:41:33;;;;;;;48.55;38.65;;;;;;;11.85;85.10;97367.56;10405101;28;19920;-53
2023/03/21 20:46:32;;;;;;;48.05;34.28;;;;;;;11.64;85.83;97378.19;10404750;28;20486;-52
2023/03/21 20:51:31;;;;;;;42.88;33.58;;;;;;;11.51;86.61;97367.09;10420619;28;20044;-53
2023/03/21 20:56:30;;;;;;;43.42;33.28;;;;;;;11.48;86.83;97359.34;10405754;28;20071;-54
2023/03/21 21:01:28;;;;;;;;;;;;;;;11.70;85.95;97377.28;10405900;28;20056;-53
2023/03/21 21:06:27;;;;;;;40.90;32.10;;;;;;;11.70;86.46;97374.69;10404140;28;19918;-53
2023/03/21 21:11:27;;;;;;;39.80;31.73;;;;;;;11.72;86.08;97384.19;10404668;28;20029;-54
2023/03/21 21:16:26;;;;;;;184.07;97.38;;;;;;;11.70;86.46;97383.34;10404634;28;20517;-53
2023/03/21 21:21:26;;;;;;;50.47;35.88;;;;;;;11.50;86.94;97370.56;10403924;28;20060;-54
2023/03/21 21:26:25;;;;;;;77.88;48.60;;;;;;;11.53;88.29;97393.06;10403245;28;20128;-53
2023/03/21 21:31:25;;;;;;;41.10;29.75;;;;;;;11.23;88.81;97387.31;10404498;28;20035;-54
2023/03/21 21:36:25;;;;;;;38.53;29.15;;;;;;;11.21;90.29;97394.25;10401824;28;20136;-54
2023/03/21 21:41:26;;;;;;;50.33;39.30;;;;;;;11.15;91.04;97395.19;10403390;28;20131;-53
2023/03/21 21:46:25;;;;;;;55.80;43.50;;;;;;;11.03;92.09;97405.66;10419074;28;20071;-54
2023/03/21 21:51:25;;;;;;;;;;;;;;;11.10;91.93;97398.66;10403987;28;20076;-54
2023/03/21 21:56:30;;;;;;;60.70;44.65;;;;;;;11.25;93.01;97408.94;10402675;28;20003;-54
2023/03/21 22:01:33;;;;;;;57.03;43.03;;;;;;;11.30;92.78;97409.75;10403517;28;20454;-54
2023/03/21 22:06:33;;;;;;;70.00;48.78;;;;;;;11.35;92.56;97410.56;10403156;28;20123;-55
2023/03/21 22:11:32;;;;;;;54.85;41.25;;;;;;;11.32;92.54;97401.94;10402855;28;20116;-54
2023/03/21 22:16:31;;;;;;;49.33;36.65;;;;;;;11.27;92.23;97402.00;10403107;28;20043;-54
2023/03/21 22:21:30;;;;;;;41.92;32.45;;;;;;;11.20;92.58;97397.72;10430019;28;20512;-55
2023/03/21 22:26:29;;;;;;;52.50;39.92;;;;;;;10.97;93.42;97400.53;10401333;28;20052;-55
2023/03/21 22:31:28;;;;;;;;;;;;;;;10.74;94.05;97392.88;10403521;28;20060;-55
2023/03/21 22:36:27;;;;;;;55.47;41.42;;;;;;;10.62;94.97;97388.66;10401313;28;19912;-55
2023/03/21 22:41:26;;;;;;;62.00;42.47;;;;;;;10.32;95.08;97338.69;10401895;28;20481;-55
2023/03/21 22:46:25;;;;;;;54.17;40.00;;;;;;;10.75;95.53;97385.09;10402144;28;20437;-55
2023/03/21 22:51:24;;;;;;;;;;;;;;;10.82;94.69;97391.06;10402111;28;20123;-55
2023/03/21 22:56:22;;;;;;;50.78;38.40;;;;;;;10.84;94.96;97394.53;10399223;28;19943;-55
2023/03/21 23:01:22;;;;;;;49.50;38.88;;;;;;;10.80;94.41;97403.22;10401436;28;20033;-55
2023/03/21 23:06:21;;;;;;;;;;;;;;;10.84;94.22;97395.38;10399833;28;20779;-54
2023/03/21 23:11:20;;;;;;;40.70;32.00;;;;;;;10.88;94.40;97398.00;10398278;28;20471;-54
2023/03/21 23:16:20;;;;;;;;;;;;;;;10.84;94.00;97394.53;10400246;28;20070;-55
2023/03/21 23:21:21;;;;;;;37.08;29.05;;;;;;;10.85;93.86;97398.84;10396413;28;20015;-54